createdAt,value
2018-06-22T00:02:02.371Z,2.57
2018-06-22T00:04:31.662Z,2.30
2018-06-22T00:07:00.891Z,3.10
2018-06-22T00:09:30.131Z,2.70
2018-06-22T00:11:59.426Z,2.80
2018-06-22T00:14:28.404Z,3.20
2018-06-22T00:16:57.594Z,2.90
2018-06-22T00:19:27.352Z,2.63
2018-06-22T00:21:56.651Z,2.20
2018-06-22T00:24:25.607Z,2.73
2018-06-22T00:26:54.924Z,2.90
2018-06-22T00:29:24.225Z,2.37
2018-06-22T00:31:53.547Z,2.30
2018-06-22T00:34:23.214Z,2.30
2018-06-22T00:36:52.572Z,2.10
2018-06-22T00:39:22.252Z,2.80
2018-06-22T00:41:51.718Z,2.73
2018-06-22T00:44:21.206Z,2.40
2018-06-22T00:46:50.558Z,2.63
2018-06-22T00:49:19.759Z,2.67
2018-06-22T00:51:49.052Z,2.20
2018-06-22T00:54:18.795Z,2.37
2018-06-22T00:56:48.048Z,2.20
2018-06-22T00:59:17.295Z,2.70
2018-06-22T01:01:46.834Z,2.40
2018-06-22T01:04:16.192Z,2.33
2018-06-22T01:06:45.493Z,2.83
2018-06-22T01:09:14.791Z,2.67
2018-06-22T01:11:43.979Z,2.63
2018-06-22T01:14:13.172Z,1.93
2018-06-22T01:16:42.460Z,2.10
2018-06-22T01:19:12.032Z,1.97
2018-06-22T01:21:41.852Z,2.50
2018-06-22T01:24:11.287Z,2.23
2018-06-22T01:26:40.533Z,2.20
2018-06-22T01:29:16.011Z,2.03
2018-06-22T01:31:45.174Z,2.50
2018-06-22T01:34:14.411Z,3.67
2018-06-22T01:36:43.711Z,2.40
2018-06-22T01:39:12.936Z,2.13
2018-06-22T01:41:42.221Z,2.60
2018-06-22T01:44:11.453Z,2.20
2018-06-22T01:46:40.643Z,2.40
2018-06-22T01:49:09.914Z,2.40
2018-06-22T01:51:39.151Z,2.07
2018-06-22T01:54:08.386Z,2.40
2018-06-22T01:56:37.845Z,2.20
2018-06-22T01:59:07.228Z,2.27
2018-06-22T02:01:36.895Z,2.77
2018-06-22T02:04:06.225Z,2.60
2018-06-22T02:06:35.456Z,2.60
2018-06-22T02:09:08.949Z,2.23
2018-06-22T02:11:38.360Z,2.57
2018-06-22T02:14:07.600Z,2.07
2018-06-22T02:16:37.240Z,2.67
2018-06-22T02:19:06.441Z,2.27
2018-06-22T02:21:35.402Z,2.10
2018-06-22T02:24:04.505Z,1.93
2018-06-22T02:26:33.715Z,2.57
2018-06-22T02:29:02.921Z,2.40
2018-06-22T02:31:32.197Z,2.73
2018-06-22T02:34:01.343Z,2.53
2018-06-22T02:36:30.587Z,2.60
2018-06-22T02:38:59.632Z,2.83
2018-06-22T02:41:28.839Z,2.17
2018-06-22T02:43:58.055Z,2.67
2018-06-22T02:46:27.433Z,2.50
2018-06-22T02:48:56.632Z,2.57
2018-06-22T02:51:25.805Z,2.27
2018-06-22T02:53:55.054Z,2.60
2018-06-22T02:56:24.353Z,2.40
2018-06-22T02:58:53.801Z,2.67
2018-06-22T03:01:23.347Z,1.73
2018-06-22T03:03:52.546Z,2.53
2018-06-22T03:06:21.769Z,2.40
2018-06-22T03:08:50.999Z,2.33
2018-06-22T03:11:20.254Z,2.90
2018-06-22T03:13:49.592Z,2.50
2018-06-22T03:16:18.985Z,2.70
2018-06-22T03:18:48.284Z,3.10
2018-06-22T03:21:17.716Z,2.20
2018-06-22T03:23:46.964Z,3.03
2018-06-22T03:26:16.180Z,2.10
2018-06-22T03:28:45.465Z,2.37
2018-06-22T03:31:14.882Z,2.10
2018-06-22T03:33:44.104Z,3.20
2018-06-22T03:36:13.403Z,2.30
2018-06-22T03:38:42.892Z,1.80
2018-06-22T03:41:12.237Z,2.33
2018-06-22T03:43:41.208Z,2.10
2018-06-22T03:46:10.273Z,2.50
2018-06-22T03:48:39.672Z,2.27
2018-06-22T03:51:08.874Z,2.60
2018-06-22T03:53:38.482Z,2.00
2018-06-22T03:56:08.142Z,2.33
2018-06-22T03:58:37.919Z,2.63
2018-06-22T04:01:07.127Z,2.03
2018-06-22T04:03:36.592Z,2.10
2018-06-22T04:06:06.025Z,2.93
2018-06-22T04:08:35.371Z,2.00
2018-06-22T04:11:04.968Z,1.87
2018-06-22T04:13:34.296Z,2.13
2018-06-22T04:16:03.539Z,2.20
2018-06-22T04:18:32.909Z,2.10
2018-06-22T04:21:02.096Z,2.10
2018-06-22T04:23:31.483Z,2.33
2018-06-22T04:26:00.704Z,2.57
2018-06-22T04:28:30.067Z,2.40
2018-06-22T04:30:59.283Z,2.20
2018-06-22T04:33:28.540Z,2.90
2018-06-22T04:35:57.713Z,3.03
2018-06-22T04:38:26.912Z,2.70
2018-06-22T04:40:56.220Z,2.93
2018-06-22T04:43:25.630Z,2.90
2018-06-22T04:45:54.931Z,2.50
2018-06-22T04:48:24.194Z,2.40
2018-06-22T04:50:53.718Z,2.50
2018-06-22T04:53:23.043Z,2.50
2018-06-22T04:55:52.348Z,2.13
2018-06-22T04:58:21.705Z,2.93
2018-06-22T05:00:50.932Z,2.10
2018-06-22T05:03:24.480Z,2.97
2018-06-22T05:05:53.933Z,2.40
2018-06-22T05:08:23.284Z,2.60
2018-06-22T05:10:52.555Z,2.67
2018-06-22T05:13:21.831Z,3.27
2018-06-22T05:15:51.200Z,2.50
2018-06-22T05:18:20.501Z,2.60
2018-06-22T05:20:49.955Z,2.47
2018-06-22T05:23:19.220Z,2.17
2018-06-22T05:25:48.585Z,2.47
2018-06-22T05:28:18.109Z,2.30
2018-06-22T05:30:47.535Z,2.80
2018-06-22T05:33:16.739Z,2.57
2018-06-22T05:35:46.728Z,2.37
2018-06-22T05:38:15.959Z,2.60
2018-06-22T05:40:45.730Z,2.77
2018-06-22T05:43:14.976Z,2.43
2018-06-22T05:45:44.220Z,2.03
2018-06-22T05:48:13.491Z,2.40
2018-06-22T05:50:42.781Z,3.07
2018-06-22T05:53:12.164Z,2.40
2018-06-22T05:55:41.376Z,2.63
2018-06-22T05:58:10.593Z,2.40
2018-06-22T06:00:39.772Z,2.90
2018-06-22T06:03:08.747Z,2.80
2018-06-22T06:05:37.856Z,3.10
2018-06-22T06:08:07.085Z,2.67
2018-06-22T06:10:36.351Z,2.10
2018-06-22T06:13:05.874Z,1.73
2018-06-22T06:15:35.054Z,2.47
2018-06-22T06:18:04.456Z,2.20
2018-06-22T06:20:33.843Z,2.80
2018-06-22T06:23:04.121Z,2.30
2018-06-22T06:25:33.402Z,2.43
2018-06-22T06:28:02.637Z,2.60
2018-06-22T06:30:32.292Z,3.17
2018-06-22T06:33:01.612Z,2.60
2018-06-22T06:35:30.809Z,2.70
2018-06-22T06:38:00.235Z,3.07
2018-06-22T06:40:29.410Z,4.30
2018-06-22T06:42:58.704Z,3.27
2018-06-22T06:45:28.048Z,2.50
2018-06-22T06:47:57.328Z,2.63
2018-06-22T06:50:26.662Z,2.60
2018-06-22T06:52:55.908Z,2.50
2018-06-22T06:55:25.225Z,3.07
2018-06-22T06:57:54.409Z,2.87
2018-06-22T07:00:23.709Z,2.80
2018-06-22T07:02:53.166Z,3.57
2018-06-22T07:05:22.898Z,2.63
2018-06-22T07:07:52.356Z,2.87
2018-06-22T07:10:21.583Z,2.87
2018-06-22T07:12:50.783Z,2.53
2018-06-22T07:15:21.687Z,3.03
2018-06-22T07:17:51.024Z,3.70
2018-06-22T07:20:21.024Z,3.37
2018-06-22T07:22:50.311Z,3.63
2018-06-22T07:25:19.527Z,3.20
2018-06-22T07:27:48.847Z,2.57
2018-06-22T07:30:18.162Z,3.00
2018-06-22T07:32:47.425Z,2.80
2018-06-22T07:35:16.792Z,3.00
2018-06-22T07:37:45.994Z,3.23
2018-06-22T07:40:15.429Z,3.57
2018-06-22T07:42:44.672Z,2.93
2018-06-22T07:45:13.921Z,3.83
2018-06-22T07:47:43.472Z,3.07
2018-06-22T07:50:12.704Z,3.30
2018-06-22T07:52:41.930Z,3.30
2018-06-22T07:55:11.146Z,4.10
2018-06-22T07:57:40.456Z,3.60
2018-06-22T08:00:09.704Z,4.03
2018-06-22T08:02:39.128Z,3.47
2018-06-22T08:05:08.419Z,3.33
2018-06-22T08:07:37.725Z,3.60
2018-06-22T08:10:07.339Z,3.90
2018-06-22T08:12:36.664Z,4.27
2018-06-22T08:15:06.146Z,3.10
2018-06-22T08:17:35.411Z,3.40
2018-06-22T08:20:04.479Z,4.20
2018-06-22T08:22:34.663Z,3.30
2018-06-22T08:25:03.894Z,4.60
2018-06-22T08:27:33.159Z,3.53
2018-06-22T08:30:02.498Z,3.63
2018-06-22T08:32:31.976Z,3.17
2018-06-22T08:35:02.143Z,3.10
2018-06-22T08:37:31.354Z,3.93
2018-06-22T08:40:01.198Z,3.53
2018-06-22T08:42:30.420Z,4.27
2018-06-22T08:45:00.424Z,3.53
2018-06-22T08:47:29.628Z,3.50
2018-06-22T08:49:58.888Z,4.20
2018-06-22T08:52:28.599Z,4.30
2018-06-22T08:54:57.759Z,7.67
2018-06-22T08:57:27.088Z,4.47
2018-06-22T08:59:56.641Z,3.70
2018-06-22T09:02:25.998Z,3.20
2018-06-22T09:04:55.404Z,3.77
2018-06-22T09:07:24.861Z,4.43
2018-06-22T09:09:54.290Z,4.03
2018-06-22T09:12:23.568Z,3.63
2018-06-22T09:14:53.121Z,3.70
2018-06-22T09:17:22.335Z,3.50
2018-06-22T09:19:51.572Z,4.07
2018-06-22T09:22:21.244Z,3.97
2018-06-22T09:24:50.504Z,3.27
2018-06-22T09:27:19.857Z,3.77
2018-06-22T09:29:49.052Z,4.40
2018-06-22T09:32:18.345Z,3.70
2018-06-22T09:34:47.644Z,3.47
2018-06-22T09:37:17.418Z,3.97
2018-06-22T09:39:47.606Z,4.13
2018-06-22T09:42:16.919Z,4.53
2018-06-22T09:44:46.160Z,3.87
2018-06-22T09:47:15.458Z,4.30
2018-06-22T09:49:44.907Z,4.33
2018-06-22T09:52:14.692Z,3.47
2018-06-22T09:54:43.934Z,3.50
2018-06-22T09:57:13.156Z,3.57
2018-06-22T09:59:42.547Z,2.73
2018-06-22T10:02:11.968Z,2.73
2018-06-22T10:04:40.812Z,3.40
2018-06-22T10:07:09.937Z,3.67
2018-06-22T10:09:39.132Z,4.30
2018-06-22T10:12:08.666Z,4.47
2018-06-22T10:14:38.012Z,4.27
2018-06-22T10:17:07.307Z,3.60
2018-06-22T10:19:36.644Z,4.40
2018-06-22T10:22:06.154Z,4.93
2018-06-22T10:24:35.384Z,3.70
2018-06-22T10:27:04.619Z,2.83
2018-06-22T10:29:33.849Z,3.57
2018-06-22T10:32:03.076Z,3.30
2018-06-22T10:34:32.484Z,2.93
2018-06-22T10:37:02.313Z,2.70
2018-06-22T10:39:31.945Z,2.87
2018-06-22T10:42:18.195Z,2.70
2018-06-22T10:44:48.037Z,2.83
2018-06-22T10:47:17.269Z,3.30
2018-06-22T10:49:46.531Z,3.07
2018-06-22T10:52:15.454Z,3.37
2018-06-22T10:54:44.528Z,2.90
2018-06-22T10:57:13.760Z,3.80
2018-06-22T10:59:43.060Z,2.73
2018-06-22T11:02:12.559Z,2.90
2018-06-22T11:04:41.853Z,3.77
2018-06-22T11:07:11.321Z,2.67
2018-06-22T11:09:40.574Z,3.57
2018-06-22T11:12:10.028Z,3.20
2018-06-22T11:14:39.358Z,3.23
2018-06-22T11:17:08.913Z,3.80
2018-06-22T11:19:38.439Z,3.83
2018-06-22T11:22:07.328Z,4.10
2018-06-22T11:24:36.682Z,3.87
2018-06-22T11:27:06.111Z,3.77
2018-06-22T11:29:35.504Z,3.40
2018-06-22T11:32:04.763Z,4.40
2018-06-22T11:34:33.972Z,3.63
2018-06-22T11:37:03.241Z,3.27
2018-06-22T11:39:32.567Z,3.57
2018-06-22T11:42:01.769Z,2.60
2018-06-22T11:44:31.039Z,2.13
2018-06-22T11:47:00.394Z,2.13
2018-06-22T11:49:29.571Z,1.90
2018-06-22T11:51:58.935Z,2.23
2018-06-22T11:54:28.244Z,2.43
2018-06-22T11:56:57.533Z,1.90
2018-06-22T11:59:26.751Z,2.97
2018-06-22T12:01:55.991Z,3.10
2018-06-22T12:04:25.288Z,3.73
2018-06-22T12:06:54.538Z,3.73
2018-06-22T12:09:23.743Z,3.47
2018-06-22T12:11:53.113Z,3.80
2018-06-22T12:14:22.015Z,2.83
2018-06-22T12:16:51.140Z,2.93
2018-06-22T12:19:20.830Z,2.80
2018-06-22T12:21:49.996Z,2.70
2018-06-22T12:24:19.520Z,2.50
2018-06-22T12:26:49.040Z,2.67
2018-06-22T12:29:18.839Z,3.70
2018-06-22T12:31:48.087Z,4.20
2018-06-22T12:34:17.387Z,4.03
2018-06-22T12:36:46.927Z,3.33
2018-06-22T12:39:16.331Z,3.20
2018-06-22T12:41:45.699Z,3.90
2018-06-22T12:44:14.948Z,4.23
2018-06-22T12:46:44.184Z,3.33
2018-06-22T12:49:13.380Z,4.83
2018-06-22T12:51:42.681Z,4.53
2018-06-22T12:54:12.121Z,3.63
2018-06-22T12:56:41.363Z,4.07
2018-06-22T12:59:10.417Z,4.30
2018-06-22T13:01:39.524Z,4.70
2018-06-22T13:04:09.305Z,4.77
2018-06-22T13:06:38.728Z,3.83
2018-06-22T13:09:09.788Z,3.60
2018-06-22T13:11:39.031Z,3.97
2018-06-22T13:14:09.324Z,4.37
2018-06-22T13:16:38.733Z,6.47
2018-06-22T13:19:07.933Z,4.23
2018-06-22T13:21:53.104Z,2.70
2018-06-22T13:24:24.511Z,3.93
2018-06-22T13:26:53.823Z,2.67
2018-06-22T13:29:23.143Z,2.97
2018-06-22T13:31:52.506Z,3.57
2018-06-22T13:34:21.727Z,3.90
2018-06-22T13:36:51.018Z,2.93
2018-06-22T13:39:20.216Z,3.40
2018-06-22T13:41:49.407Z,3.03
2018-06-22T13:44:18.591Z,3.40
2018-06-22T13:46:47.907Z,3.17
2018-06-22T13:49:16.758Z,2.80
2018-06-22T13:51:45.988Z,3.30
2018-06-22T13:54:15.409Z,3.03
2018-06-22T13:56:45.143Z,3.07
2018-06-22T13:59:14.459Z,3.10
2018-06-22T14:01:43.828Z,3.50
2018-06-22T14:04:18.598Z,2.33
2018-06-22T14:06:51.218Z,2.40
2018-06-22T14:09:20.579Z,2.80
2018-06-22T14:11:49.891Z,3.00
2018-06-22T14:14:19.131Z,2.70
2018-06-22T14:16:48.358Z,3.03
2018-06-22T14:19:17.753Z,3.10
2018-06-22T14:21:47.000Z,2.63
2018-06-22T14:24:16.383Z,2.63
2018-06-22T14:26:45.664Z,2.83
2018-06-22T14:29:15.045Z,2.80
2018-06-22T14:31:44.415Z,1.80
2018-06-22T14:34:13.792Z,2.43
2018-06-22T14:36:43.096Z,2.40
2018-06-22T14:39:12.700Z,2.20
2018-06-22T14:41:41.960Z,2.57
2018-06-22T14:44:11.153Z,2.50
2018-06-22T14:46:40.507Z,2.43
2018-06-22T14:49:09.744Z,2.77
2018-06-22T14:51:38.971Z,2.13
2018-06-22T14:55:11.552Z,1.93
2018-06-22T14:57:46.498Z,2.00
2018-06-22T15:00:20.894Z,2.13
2018-06-22T15:02:55.307Z,1.90
2018-06-22T15:05:29.828Z,2.20
2018-06-22T15:08:01.465Z,2.07
2018-06-22T15:10:30.759Z,2.27
2018-06-22T15:13:00.276Z,2.00
2018-06-22T15:15:29.486Z,2.27
2018-06-22T15:17:58.524Z,1.97
2018-06-22T15:20:27.866Z,2.40
2018-06-22T15:22:57.456Z,2.73
2018-06-22T15:25:26.981Z,2.50
2018-06-22T15:27:56.395Z,1.83
2018-06-22T15:30:25.665Z,2.50
2018-06-22T15:32:54.934Z,1.80
2018-06-22T15:35:29.597Z,1.87
2018-06-22T15:38:04.086Z,2.10
2018-06-22T15:40:38.676Z,2.73
2018-06-22T15:43:13.284Z,2.47
2018-06-22T15:45:47.819Z,2.23
2018-06-22T15:48:22.680Z,2.37
2018-06-22T15:50:57.529Z,3.13
2018-06-22T15:53:32.283Z,2.23
2018-06-22T15:56:07.903Z,2.33
2018-06-22T15:58:37.459Z,2.80
2018-06-22T16:01:07.060Z,2.10
2018-06-22T16:03:41.738Z,2.00
2018-06-22T16:06:11.384Z,2.30
2018-06-22T16:08:41.163Z,2.20
2018-06-22T16:11:10.218Z,2.20
2018-06-22T16:13:40.095Z,2.53
2018-06-22T16:16:14.619Z,2.50
2018-06-22T16:18:49.179Z,2.50
2018-06-22T16:21:23.621Z,2.50
2018-06-22T16:23:58.109Z,2.23
2018-06-22T16:26:32.987Z,2.20
2018-06-22T16:29:02.608Z,3.40
2018-06-22T16:31:31.926Z,2.40
2018-06-22T16:34:01.293Z,2.47
2018-06-22T16:36:30.583Z,2.60
2018-06-22T16:39:00.183Z,2.57
2018-06-22T16:41:29.367Z,3.20
2018-06-22T16:43:58.601Z,3.00
2018-06-22T16:46:28.118Z,2.67
2018-06-22T16:48:57.328Z,3.27
2018-06-22T16:51:26.752Z,2.63
2018-06-22T16:53:56.244Z,2.43
2018-06-22T16:56:26.141Z,2.43
2018-06-22T16:58:55.431Z,2.20
2018-06-22T17:01:24.685Z,2.73
2018-06-22T17:03:53.887Z,2.30
2018-06-22T17:06:23.270Z,2.10
2018-06-22T17:08:57.808Z,2.30
2018-06-22T17:12:35.572Z,1.80
2018-06-22T17:15:10.120Z,1.97
2018-06-22T17:17:44.768Z,2.13
2018-06-22T17:20:14.051Z,2.47
2018-06-22T17:22:44.524Z,2.30
2018-06-22T17:25:14.369Z,2.53
2018-06-22T17:27:47.202Z,2.70
2018-06-22T17:30:16.664Z,2.10
2018-06-22T17:32:47.685Z,2.50
2018-06-22T17:35:16.883Z,2.63
2018-06-22T17:37:46.470Z,2.03
2018-06-22T17:40:16.007Z,2.50
2018-06-22T17:42:45.735Z,3.20
2018-06-22T17:45:15.057Z,2.13
2018-06-22T17:47:44.560Z,2.33
2018-06-22T17:50:19.011Z,2.53
2018-06-22T17:52:48.539Z,1.90
2018-06-22T17:55:17.768Z,2.60
2018-06-22T17:57:47.202Z,2.70
2018-06-22T18:00:21.741Z,2.63
2018-06-22T18:02:56.384Z,2.23
2018-06-22T18:05:30.760Z,2.03
2018-06-22T18:08:00.040Z,2.00
2018-06-22T18:10:34.940Z,2.10
2018-06-22T18:13:04.377Z,3.07
2018-06-22T18:15:33.679Z,2.20
2018-06-22T18:18:02.929Z,2.70
2018-06-22T18:20:32.421Z,2.20
2018-06-22T18:23:01.682Z,1.73
2018-06-22T18:25:31.171Z,2.50
2018-06-22T18:28:00.569Z,2.10
2018-06-22T18:30:30.013Z,2.40
2018-06-22T18:32:59.857Z,2.07
2018-06-22T18:35:29.378Z,3.00
2018-06-22T18:37:58.861Z,2.17
2018-06-22T18:40:28.419Z,2.50
2018-06-22T18:42:57.475Z,2.50
2018-06-22T18:45:26.862Z,2.50
2018-06-22T18:47:56.197Z,2.13
2018-06-22T18:50:25.850Z,2.37
2018-06-22T18:53:00.436Z,2.03
2018-06-22T18:55:35.526Z,1.97
2018-06-22T18:58:10.041Z,1.73
2018-06-22T19:00:44.723Z,2.20
2018-06-22T19:03:19.331Z,2.30
2018-06-22T19:05:48.584Z,2.77
2018-06-22T19:08:18.048Z,3.17
2018-06-22T19:10:47.252Z,2.40
2018-06-22T19:13:16.513Z,2.47
2018-06-22T19:15:45.725Z,2.50
2018-06-22T19:18:15.052Z,2.43
2018-06-22T19:20:45.023Z,2.30
2018-06-22T19:23:14.341Z,1.80
2018-06-22T19:25:43.691Z,2.30
2018-06-22T19:28:13.055Z,2.30
2018-06-22T19:30:43.243Z,2.07
2018-06-22T19:33:12.574Z,2.37
2018-06-22T19:35:41.759Z,2.50
2018-06-22T19:38:10.976Z,2.97
2018-06-22T19:40:41.146Z,1.73
2018-06-22T19:43:15.634Z,2.07
2018-06-22T19:46:48.125Z,2.00
2018-06-22T19:50:23.332Z,2.30
2018-06-22T19:52:57.940Z,2.60
2018-06-22T19:55:26.840Z,2.80
2018-06-22T19:57:56.213Z,2.60
2018-06-22T20:00:25.409Z,2.63
2018-06-22T20:02:54.896Z,2.70
2018-06-22T20:05:24.260Z,2.40
2018-06-22T20:07:53.496Z,2.67
2018-06-22T20:10:22.881Z,2.77
2018-06-22T20:12:52.068Z,3.33
2018-06-22T20:15:23.787Z,3.60
2018-06-22T20:17:54.454Z,3.83
2018-06-22T20:20:23.731Z,3.30
2018-06-22T20:22:52.977Z,3.50
2018-06-22T20:25:27.519Z,3.43
2018-06-22T20:27:56.840Z,3.03
2018-06-22T20:30:26.534Z,3.00
2018-06-22T20:32:55.760Z,2.90
2018-06-22T20:35:30.644Z,3.70
2018-06-22T20:38:05.891Z,3.10
2018-06-22T20:40:40.552Z,2.97
2018-06-22T20:43:15.046Z,3.33
2018-06-22T20:45:48.375Z,2.70
2018-06-22T20:48:23.199Z,3.60
2018-06-22T20:50:52.433Z,4.03
2018-06-22T20:53:21.644Z,3.30
2018-06-22T20:55:50.911Z,3.37
2018-06-22T20:58:20.536Z,3.20
2018-06-22T21:00:50.947Z,3.90
2018-06-22T21:03:20.647Z,3.60
2018-06-22T21:05:49.839Z,3.60
2018-06-22T21:08:19.460Z,4.30
2018-06-22T21:10:48.666Z,3.30
2018-06-22T21:13:17.889Z,4.30
2018-06-22T21:15:47.220Z,3.67
2018-06-22T21:18:16.375Z,4.40
2018-06-22T21:20:51.079Z,3.80
2018-06-22T21:23:20.384Z,3.07
2018-06-22T21:25:51.704Z,4.27
2018-06-22T21:28:26.233Z,4.33
2018-06-22T21:31:00.759Z,3.63
2018-06-22T21:33:35.545Z,4.50
2018-06-22T21:36:10.942Z,4.60
2018-06-22T21:38:45.392Z,3.80
2018-06-22T21:41:14.633Z,3.70
2018-06-22T21:43:43.920Z,3.73
2018-06-22T21:46:13.361Z,3.27
2018-06-22T21:48:42.652Z,4.47
2018-06-22T21:51:11.936Z,3.80
2018-06-22T21:53:41.575Z,3.90
2018-06-22T21:56:10.496Z,4.47
2018-06-22T21:58:39.883Z,3.53
2018-06-22T22:01:10.186Z,3.40
2018-06-22T22:03:39.408Z,4.43
2018-06-22T22:06:08.804Z,3.80
2018-06-22T22:08:38.002Z,4.00
2018-06-22T22:11:08.795Z,4.33
2018-06-22T22:13:39.084Z,4.20
2018-06-22T22:16:09.356Z,3.60
2018-06-22T22:18:38.636Z,4.60
2018-06-22T22:21:08.179Z,3.60
2018-06-22T22:23:37.478Z,6.43
2018-06-22T22:26:06.681Z,4.83
2018-06-22T22:28:35.903Z,5.37
2018-06-22T22:31:05.483Z,4.43
2018-06-22T22:33:34.877Z,4.00
2018-06-22T22:36:04.747Z,5.50
2018-06-22T22:38:33.948Z,4.50
2018-06-22T22:41:03.195Z,4.07
2018-06-22T22:43:32.405Z,4.40
2018-06-22T22:46:01.761Z,5.37
2018-06-22T22:48:30.967Z,5.93
2018-06-22T22:51:00.157Z,6.57
2018-06-22T22:53:29.352Z,6.50
2018-06-22T22:55:58.555Z,6.90
2018-06-22T22:58:27.747Z,7.20
2018-06-22T23:00:57.370Z,7.17
2018-06-22T23:03:26.729Z,7.20
2018-06-22T23:05:55.930Z,7.27
2018-06-22T23:08:25.200Z,7.63
2018-06-22T23:10:54.570Z,7.30
2018-06-22T23:13:23.891Z,5.40
2018-06-22T23:15:53.198Z,4.50
2018-06-22T23:18:22.560Z,4.80
2018-06-22T23:20:51.883Z,4.50
2018-06-22T23:23:33.821Z,4.60
2018-06-22T23:26:03.681Z,6.10
2018-06-22T23:28:33.193Z,4.80
2018-06-22T23:31:04.419Z,4.47
2018-06-22T23:33:34.054Z,5.17
2018-06-22T23:36:04.153Z,4.90
2018-06-22T23:38:33.766Z,5.07
2018-06-22T23:41:02.682Z,3.80
2018-06-22T23:43:33.227Z,4.43
2018-06-22T23:46:02.630Z,4.97
2018-06-22T23:48:31.880Z,5.03
2018-06-22T23:51:01.100Z,4.10
2018-06-22T23:53:30.328Z,6.10
2018-06-22T23:55:59.616Z,5.20
2018-06-22T23:58:28.993Z,5.17
